Time;durP1;ratioP1;P1;durP2;ratioP2;P2;SDS_P1;SDS_P2;PMS_P1;PMS_P2;Temp;Humidity;BMP_temperature;BMP_pressure;BME280_temperature;BME280_humidity;BME280_pressure;Samples;Min_cycle;Max_cycle;Signal;HPM_P1;HPM_P2
2021/12/04 00:01:12;;;;;;;2.00;1.80;;;1.90;99.90;;;;;;5075319;28;20014;-67
2021/12/04 00:03:39;;;;;;;2.33;1.90;;;2.00;99.90;;;;;;5073501;28;20020;-67
2021/12/04 00:06:14;;;;;;;2.35;2.05;;;2.00;99.90;;;;;;5074714;28;20034;-68
2021/12/04 00:08:43;;;;;;;2.67;2.03;;;2.00;99.90;;;;;;5074578;28;20041;-68
2021/12/04 00:11:09;;;;;;;1.95;1.80;;;2.00;99.90;;;;;;5075275;28;20090;-67
2021/12/04 00:13:35;;;;;;;2.25;1.88;;;2.00;99.90;;;;;;5075167;28;20037;-69
2021/12/04 00:16:02;;;;;;;1.65;1.55;;;2.10;99.90;;;;;;5075596;28;20122;-67
2021/12/04 00:18:27;;;;;;;3.47;1.83;;;2.10;99.90;;;;;;5074442;28;20419;-68
2021/12/04 00:20:53;;;;;;;2.03;1.83;;;2.10;99.90;;;;;;5074529;28;20439;-70
2021/12/04 00:23:18;;;;;;;2.97;2.00;;;2.10;99.90;;;;;;5069434;28;20031;-67
2021/12/04 00:25:44;;;;;;;1.90;1.80;;;2.10;99.90;;;;;;5073077;28;20030;-68
2021/12/04 00:28:10;;;;;;;2.45;1.98;;;2.10;99.90;;;;;;5074514;28;20078;-68
2021/12/04 00:30:36;;;;;;;3.28;1.88;;;2.10;99.90;;;;;;5073906;28;20279;-68
2021/12/04 00:33:06;;;;;;;2.10;1.88;;;2.10;99.90;;;;;;5067625;28;20129;-69
2021/12/04 00:35:58;;;;;;;2.20;1.70;;;2.20;99.90;;;;;;5074593;28;20117;-67
2021/12/04 00:51:31;;;;;;;2.15;1.85;;;2.20;99.90;;;;;;5007220;28;20062;-67
2021/12/04 00:53:56;;;;;;;5.07;2.10;;;2.20;99.90;;;;;;5074656;28;20064;-67
2021/12/04 00:56:22;;;;;;;3.25;2.28;;;2.20;99.90;;;;;;5074913;28;20034;-69
2021/12/04 00:58:48;;;;;;;3.35;2.40;;;2.10;99.90;;;;;;5074175;28;20037;-70
2021/12/04 01:01:20;;;;;;;3.15;2.30;;;2.20;99.90;;;;;;5074581;28;20099;-67
2021/12/04 01:03:46;;;;;;;2.80;2.25;;;2.20;99.90;;;;;;5074638;28;20030;-67
2021/12/04 01:06:12;;;;;;;2.65;1.90;;;2.20;99.90;;;;;;5074341;28;20032;-68
2021/12/04 01:08:38;;;;;;;5.07;2.70;;;2.20;99.90;;;;;;5073667;28;20592;-68
2021/12/04 01:11:05;;;;;;;2.47;2.28;;;2.20;99.90;;;;;;5075100;28;20033;-67
2021/12/04 01:13:32;;;;;;;4.03;2.50;;;2.20;99.90;;;;;;5074669;28;20083;-69
2021/12/04 01:15:57;;;;;;;2.72;2.28;;;2.30;99.90;;;;;;5074769;28;20022;-67
2021/12/04 01:18:23;;;;;;;4.82;2.03;;;2.30;99.90;;;;;;5074503;28;20051;-68
2021/12/04 01:20:49;;;;;;;3.05;2.20;;;2.30;99.90;;;;;;5075119;28;20022;-68
2021/12/04 01:23:16;;;;;;;3.53;2.45;;;2.30;99.90;;;;;;5070124;28;20034;-69
2021/12/04 01:25:45;;;;;;;2.40;2.20;;;2.30;99.90;;;;;;5061816;28;20381;-67
2021/12/04 01:28:12;;;;;;;5.95;2.55;;;2.30;99.90;;;;;;5057837;28;20033;-67
2021/12/04 01:30:37;;;;;;;2.53;2.30;;;2.30;99.90;;;;;;5066928;28;20103;-69
2021/12/04 01:33:03;;;;;;;2.47;2.15;;;2.30;99.90;;;;;;5078950;28;20088;-69
2021/12/04 01:35:29;;;;;;;3.60;2.38;;;2.30;99.90;;;;;;5079062;28;20018;-69
2021/12/04 01:37:55;;;;;;;2.33;2.13;;;2.30;99.90;;;;;;5077400;28;20021;-69
2021/12/04 01:40:21;;;;;;;3.45;2.88;;;2.30;99.90;;;;;;5078919;28;20049;-67
2021/12/04 01:42:47;;;;;;;4.65;2.50;;;2.30;99.90;;;;;;5079068;28;20053;-70
2021/12/04 01:45:16;;;;;;;3.63;2.30;;;2.40;99.90;;;;;;5073800;28;20602;-67
2021/12/04 01:47:41;;;;;;;3.17;2.47;;;2.40;99.90;;;;;;5078174;28;20171;-70
2021/12/04 01:50:08;;;;;;;3.65;2.58;;;2.40;99.90;;;;;;5078237;28;20042;-68
2021/12/04 01:52:34;;;;;;;4.13;2.60;;;2.40;99.90;;;;;;5070056;28;20025;-69
2021/12/04 01:54:59;;;;;;;2.92;2.70;;;2.40;99.90;;;;;;5078436;28;20038;-70
2021/12/04 01:57:25;;;;;;;4.00;2.58;;;2.40;99.90;;;;;;5077783;28;20090;-67
2021/12/04 01:59:52;;;;;;;3.80;2.60;;;2.30;99.90;;;;;;5078347;28;20075;-68
2021/12/04 02:02:18;;;;;;;5.13;2.70;;;2.30;99.90;;;;;;5078594;28;20112;-67
2021/12/04 02:04:43;;;;;;;6.05;3.35;;;2.30;99.90;;;;;;5078030;28;20033;-68
2021/12/04 02:07:10;;;;;;;4.43;2.85;;;2.30;99.90;;;;;;5077170;28;20034;-67
2021/12/04 02:09:37;;;;;;;3.40;2.90;;;2.30;99.90;;;;;;5078106;28;20117;-70
2021/12/04 02:12:05;;;;;;;6.20;2.65;;;2.30;99.90;;;;;;5078666;28;20018;-67
2021/12/04 02:14:36;;;;;;;4.82;3.22;;;2.30;99.90;;;;;;5078265;28;20086;-67
2021/12/04 02:17:03;;;;;;;5.60;3.25;;;2.30;99.90;;;;;;5077438;28;20082;-67
2021/12/04 02:19:29;;;;;;;4.00;2.97;;;2.30;99.90;;;;;;5078049;28;20026;-67
2021/12/04 02:21:55;;;;;;;5.78;3.53;;;2.30;99.90;;;;;;5077104;28;20036;-69
2021/12/04 02:24:20;;;;;;;4.38;3.55;;;2.30;99.90;;;;;;5073830;28;20026;-69
2021/12/04 02:26:48;;;;;;;6.47;4.43;;;2.30;99.90;;;;;;5078000;28;20095;-67
2021/12/04 02:29:14;;;;;;;4.43;3.47;;;2.30;99.90;;;;;;5077303;28;20022;-67
2021/12/04 02:31:40;;;;;;;6.75;4.20;;;2.20;99.90;;;;;;5077274;28;20031;-68
2021/12/04 02:34:06;;;;;;;6.63;3.97;;;2.20;99.90;;;;;;5077801;28;20026;-68
2021/12/04 02:36:32;;;;;;;5.53;3.92;;;2.30;99.90;;;;;;5077147;28;20041;-68
2021/12/04 02:38:58;;;;;;;4.85;3.45;;;2.20;99.90;;;;;;5076010;28;20113;-69
2021/12/04 02:41:24;;;;;;;6.85;4.13;;;2.20;99.90;;;;;;5059068;28;20534;-67
2021/12/04 02:43:50;;;;;;;4.95;3.92;;;2.30;99.90;;;;;;5064715;28;20343;-67
2021/12/04 02:46:17;;;;;;;7.15;3.90;;;2.20;99.90;;;;;;5077149;28;20034;-67
2021/12/04 02:48:45;;;;;;;7.38;4.78;;;2.20;99.90;;;;;;5076616;28;20401;-70
2021/12/04 02:51:11;;;;;;;5.28;4.05;;;2.20;99.90;;;;;;5076418;28;20045;-67
2021/12/04 02:53:37;;;;;;;7.85;4.63;;;2.20;99.90;;;;;;5077387;28;20049;-68
2021/12/04 02:56:05;;;;;;;9.10;4.60;;;2.20;99.90;;;;;;5075767;28;20496;-67
2021/12/04 02:58:33;;;;;;;8.52;5.18;;;2.10;99.90;;;;;;5075809;28;20026;-68
2021/12/04 03:00:59;;;;;;;8.82;4.72;;;2.10;99.90;;;;;;5077106;28;20022;-68
2021/12/04 03:03:25;;;;;;;7.93;5.10;;;2.10;99.90;;;;;;5076399;28;20037;-67
2021/12/04 03:05:51;;;;;;;7.80;4.93;;;2.00;99.90;;;;;;5077202;28;20393;-67
2021/12/04 03:08:18;;;;;;;9.30;5.15;;;2.00;99.90;;;;;;5076399;28;20033;-68
2021/12/04 03:10:47;;;;;;;7.25;4.97;;;2.00;99.90;;;;;;5072038;28;20114;-69
2021/12/04 03:13:12;;;;;;;8.60;4.93;;;2.00;99.90;;;;;;5068673;28;20129;-69
2021/12/04 03:15:38;;;;;;;7.38;5.50;;;1.90;99.90;;;;;;5076311;28;20120;-68
2021/12/04 03:18:05;;;;;;;9.57;5.70;;;1.90;99.90;;;;;;5075613;28;20389;-68
2021/12/04 03:20:32;;;;;;;6.82;5.38;;;1.90;99.90;;;;;;5069786;28;20029;-68
2021/12/04 03:23:01;;;;;;;8.52;5.22;;;1.90;99.90;;;;;;5071844;28;20125;-68
2021/12/04 03:25:27;;;;;;;7.18;4.82;;;1.90;99.90;;;;;;5070785;28;20335;-68
2021/12/04 03:27:53;;;;;;;10.85;6.03;;;1.90;99.90;;;;;;5075856;28;20036;-68
2021/12/04 03:35:18;;;;;;;9.38;6.13;;;1.80;99.90;;;;;;5008596;28;20033;-68
2021/12/04 03:40:57;;;;;;;9.60;5.80;;;1.80;99.90;;;;;;5008830;28;20083;-67
2021/12/04 03:43:22;;;;;;;12.50;5.80;;;1.80;99.90;;;;;;5075566;28;20025;-67
2021/12/04 03:45:54;;;;;;;9.23;5.63;;;1.80;99.90;;;;;;5075942;28;20108;-68
2021/12/04 03:51:00;;;;;;;10.52;5.97;;;1.80;99.90;;;;;;5007955;28;20030;-67
2021/12/04 03:53:26;;;;;;;11.13;6.13;;;1.80;99.90;;;;;;5066988;28;20030;-67
2021/12/04 03:55:52;;;;;;;10.82;6.03;;;1.70;99.90;;;;;;5075709;28;20106;-69
2021/12/04 03:58:19;;;;;;;9.32;6.15;;;1.70;99.90;;;;;;5075321;28;20025;-68
2021/12/04 04:00:45;;;;;;;8.85;6.05;;;1.80;99.90;;;;;;5075502;28;20461;-68
2021/12/04 04:03:11;;;;;;;13.20;6.13;;;1.80;99.90;;;;;;5075318;28;20033;-68
2021/12/04 04:05:37;;;;;;;10.23;6.45;;;1.80;99.90;;;;;;5075254;28;20512;-67
2021/12/04 04:08:02;;;;;;;13.40;7.28;;;1.80;99.90;;;;;;5007135;28;20029;-68
2021/12/04 04:10:28;;;;;;;11.80;6.78;;;1.80;99.90;;;;;;5007936;28;20060;-67
2021/12/04 04:12:54;;;;;;;13.15;7.28;;;1.80;99.90;;;;;;5074924;28;20022;-68
2021/12/04 04:15:21;;;;;;;11.93;7.00;;;1.80;99.90;;;;;;5074418;28;20175;-68
2021/12/04 04:17:47;;;;;;;11.43;6.68;;;1.80;99.90;;;;;;5074152;28;20061;-67
2021/12/04 04:20:17;;;;;;;12.00;7.05;;;1.80;99.90;;;;;;5073382;28;20503;-68
2021/12/04 04:22:44;;;;;;;13.23;7.18;;;1.80;99.90;;;;;;5073925;28;20433;-69
2021/12/04 04:25:11;;;;;;;12.55;6.82;;;1.80;99.90;;;;;;5075375;28;20022;-69
2021/12/04 04:27:36;;;;;;;10.40;6.40;;;1.80;99.90;;;;;;5073373;28;20121;-68
2021/12/04 04:30:11;;;;;;;10.63;7.00;;;1.80;99.90;;;;;;5087609;28;20168;-68
2021/12/04 04:32:36;;;;;;;13.65;7.28;;;1.80;99.90;;;;;;5071060;28;20026;-71
2021/12/04 05:10:38;;;;;;;8.73;5.25;;;1.90;99.90;;;;;;5011066;28;20091;-69
2021/12/04 05:20:37;;;;;;;8.05;5.20;;;1.90;99.90;;;;;;5011021;28;20108;-69
2021/12/04 05:23:03;;;;;;;8.82;5.50;;;2.00;99.90;;;;;;5088173;28;20034;-69
2021/12/04 05:25:30;;;;;;;7.38;5.45;;;2.00;99.90;;;;;;5092068;28;20036;-69
2021/12/04 05:27:56;;;;;;;8.35;5.30;;;2.00;99.90;;;;;;5075618;28;20037;-69
2021/12/04 05:30:22;;;;;;;8.27;4.97;;;2.00;99.90;;;;;;5068680;28;20029;-69
2021/12/04 05:32:48;;;;;;;7.32;4.63;;;2.00;99.90;;;;;;5078691;28;20524;-68
2021/12/04 05:35:13;;;;;;;7.82;5.18;;;2.00;99.90;;;;;;5079704;28;20037;-69
2021/12/04 05:37:39;;;;;;;12.05;5.43;;;2.00;99.90;;;;;;5077900;28;20149;-69
2021/12/04 05:40:10;;;;;;;6.93;4.90;;;2.10;99.90;;;;;;5078416;28;20029;-69
2021/12/04 05:42:35;;;;;;;9.32;5.03;;;2.10;99.90;;;;;;5080560;28;20053;-69
2021/12/04 05:45:02;;;;;;;8.73;5.00;;;2.10;99.90;;;;;;5078120;28;20060;-69
2021/12/04 05:47:38;;;;;;;7.13;4.70;;;2.10;99.90;;;;;;5075708;28;20042;-68
2021/12/04 05:55:22;;;;;;;7.32;4.80;;;2.20;99.90;;;;;;5014491;28;20038;-69
2021/12/04 05:57:48;;;;;;;9.68;5.22;;;2.20;99.90;;;;;;5077409;28;20550;-69
2021/12/04 06:00:18;;;;;;;7.68;4.93;;;2.20;99.90;;;;;;5078221;28;20026;-69
2021/12/04 06:02:43;;;;;;;9.75;5.10;;;2.20;99.90;;;;;;5077814;28;20022;-69
2021/12/04 06:05:09;;;;;;;7.30;4.65;;;2.20;99.90;;;;;;5078191;28;20055;-69
2021/12/04 06:07:36;;;;;;;7.63;4.72;;;2.20;99.90;;;;;;5082177;28;20032;-69
2021/12/04 06:10:03;;;;;;;6.18;4.78;;;2.30;99.90;;;;;;5080511;28;20075;-69
2021/12/04 06:12:29;;;;;;;8.10;4.95;;;2.30;99.90;;;;;;5079519;28;20074;-69
2021/12/04 06:14:54;;;;;;;8.23;5.28;;;2.30;99.90;;;;;;5007926;28;20401;-69
2021/12/04 06:17:20;;;;;;;9.10;5.32;;;2.30;99.90;;;;;;5076413;28;20578;-68
2021/12/04 06:22:38;;;;;;;8.82;5.28;;;2.30;99.90;;;;;;4998714;28;20029;-69
2021/12/04 06:25:12;;;;;;;10.43;6.20;;;2.40;99.90;;;;;;5076765;28;20033;-69
2021/12/04 06:27:39;;;;;;;9.50;5.90;;;2.40;99.90;;;;;;5075312;28;20034;-68
2021/12/04 06:30:08;;;;;;;15.30;6.35;;;2.40;99.90;;;;;;5076400;28;20026;-69
2021/12/04 06:32:37;;;;;;;11.82;6.45;;;2.30;99.90;;;;;;5047634;28;20393;-69
2021/12/04 06:35:09;;;;;;;13.50;6.30;;;2.40;99.90;;;;;;5077530;28;20065;-68
2021/12/04 06:37:35;;;;;;;14.00;6.90;;;2.30;99.90;;;;;;5072404;28;20058;-69
2021/12/04 06:40:03;;;;;;;14.30;7.13;;;2.30;99.90;;;;;;5077337;28;20073;-68
2021/12/04 06:42:29;;;;;;;14.65;7.43;;;2.30;99.90;;;;;;5080282;28;20022;-69
2021/12/04 06:44:56;;;;;;;16.13;7.50;;;2.30;99.90;;;;;;5081118;28;20154;-69
2021/12/04 06:47:23;;;;;;;18.45;7.95;;;2.30;99.90;;;;;;5068528;28;20026;-69
2021/12/04 06:49:50;;;;;;;15.32;7.28;;;2.30;99.90;;;;;;5075693;28;20416;-69
2021/12/04 06:52:20;;;;;;;16.33;7.68;;;2.20;99.90;;;;;;5077589;28;20477;-69
2021/12/04 06:55:26;;;;;;;18.80;8.18;;;2.20;99.90;;;;;;5077986;28;20034;-68
2021/12/04 06:57:39;;;;;;;14.57;7.43;;;2.20;99.90;;;;;;4999785;28;20491;-68
2021/12/04 07:00:10;;;;;;;17.98;8.02;;;2.20;99.90;;;;;;5076178;28;20057;-69
2021/12/04 07:02:35;;;;;;;17.73;7.60;;;2.20;99.90;;;;;;5076186;28;20033;-69
2021/12/04 07:05:01;;;;;;;16.58;7.35;;;2.20;99.90;;;;;;5070829;28;20030;-69
2021/12/04 07:07:27;;;;;;;17.02;7.47;;;2.20;99.90;;;;;;5075637;28;20041;-69
2021/12/04 07:09:52;;;;;;;22.50;7.88;;;2.20;99.90;;;;;;5061681;28;20033;-68
2021/12/04 07:12:18;;;;;;;15.90;6.95;;;2.30;99.90;;;;;;5075557;28;20107;-69
2021/12/04 07:14:43;;;;;;;15.60;7.65;;;2.30;99.90;;;;;;5076308;28;20033;-68
2021/12/04 07:17:09;;;;;;;15.95;7.13;;;2.30;99.90;;;;;;5076292;28;20046;-68
2021/12/04 07:19:35;;;;;;;19.60;8.80;;;2.30;99.90;;;;;;5070628;28;20117;-68
2021/12/04 07:22:03;;;;;;;17.73;8.05;;;2.30;99.90;;;;;;5074894;28;20047;-68
2021/12/04 07:24:31;;;;;;;16.10;7.65;;;2.30;99.90;;;;;;5072377;28;20446;-68
2021/12/04 07:26:57;;;;;;;22.45;8.57;;;2.40;99.90;;;;;;5075884;28;20030;-68
2021/12/04 07:29:23;;;;;;;19.45;7.82;;;2.40;99.90;;;;;;5074289;28;20499;-68
2021/12/04 07:31:49;;;;;;;17.38;7.88;;;2.30;99.90;;;;;;5078233;28;20065;-68
2021/12/04 07:34:15;;;;;;;17.90;7.72;;;2.40;99.90;;;;;;5085056;28;20693;-68
2021/12/04 07:36:40;;;;;;;17.23;7.82;;;2.30;99.90;;;;;;5077608;28;20141;-68
2021/12/04 07:39:06;;;;;;;17.15;7.97;;;2.30;99.90;;;;;;5075762;28;20030;-68
2021/12/04 07:41:37;;;;;;;17.75;8.93;;;2.30;99.90;;;;;;5008152;28;20101;-69
2021/12/04 07:44:04;;;;;;;19.55;8.90;;;2.30;99.90;;;;;;5076097;28;20045;-68
2021/12/04 07:46:29;;;;;;;19.38;8.55;;;2.30;99.90;;;;;;5077019;28;20034;-68
2021/12/04 07:48:55;;;;;;;15.90;8.05;;;2.30;99.90;;;;;;5076169;28;20493;-69
2021/12/04 07:51:21;;;;;;;19.10;8.73;;;2.40;99.90;;;;;;5076407;28;20038;-69
2021/12/04 07:53:47;;;;;;;17.80;8.45;;;2.40;99.90;;;;;;5076381;28;20037;-69
2021/12/04 07:56:14;;;;;;;17.45;7.38;;;2.40;99.90;;;;;;5076144;28;20105;-69
2021/12/04 07:58:42;;;;;;;17.58;8.00;;;2.40;99.90;;;;;;5075553;28;20026;-67
2021/12/04 08:01:11;;;;;;;13.75;7.43;;;2.40;99.90;;;;;;5072378;28;20049;-67
2021/12/04 08:03:38;;;;;;;17.10;7.70;;;2.40;99.90;;;;;;5075800;28;20090;-68
2021/12/04 08:06:05;;;;;;;15.20;7.75;;;2.40;99.90;;;;;;5077795;28;20080;-68
2021/12/04 08:08:31;;;;;;;18.08;8.20;;;2.50;99.90;;;;;;5075060;28;20030;-67
2021/12/04 08:10:57;;;;;;;17.60;8.73;;;2.50;99.90;;;;;;5077001;28;20041;-68
2021/12/04 08:13:23;;;;;;;16.20;8.55;;;2.60;99.90;;;;;;5066938;28;20120;-68
2021/12/04 08:15:49;;;;;;;18.35;8.95;;;2.50;99.90;;;;;;5070056;28;20113;-68
2021/12/04 08:18:15;;;;;;;19.80;9.57;;;2.60;99.90;;;;;;5076200;28;20022;-68
2021/12/04 08:20:41;;;;;;;17.65;9.38;;;2.70;99.90;;;;;;5075133;28;20512;-67
2021/12/04 08:23:07;;;;;;;17.60;9.25;;;2.70;99.90;;;;;;5074330;28;20039;-68
2021/12/04 08:25:33;;;;;;;17.02;9.02;;;2.70;99.90;;;;;;5075658;28;20037;-70
2021/12/04 08:28:00;;;;;;;18.02;9.25;;;2.70;99.90;;;;;;5071101;28;20033;-68
2021/12/04 08:30:29;;;;;;;17.08;8.73;;;2.70;99.90;;;;;;5074845;28;20034;-67
2021/12/04 08:32:56;;;;;;;19.92;8.77;;;2.80;99.90;;;;;;5077376;28;20030;-69
2021/12/04 08:35:24;;;;;;;14.57;7.90;;;2.80;99.90;;;;;;5068887;28;20029;-70
2021/12/04 08:37:58;;;;;;;17.50;8.25;;;2.90;99.90;;;;;;5066328;28;20105;-69
2021/12/04 08:40:25;;;;;;;16.63;8.18;;;2.80;99.90;;;;;;5089786;28;20034;-67
2021/12/04 08:42:51;;;;;;;15.70;8.18;;;2.90;99.90;;;;;;5075062;28;20021;-69
2021/12/04 08:45:17;;;;;;;16.20;8.13;;;2.90;99.90;;;;;;5076435;28;20030;-69
2021/12/04 08:47:43;;;;;;;14.57;7.80;;;2.90;99.90;;;;;;5064330;28;20037;-68
2021/12/04 08:50:12;;;;;;;16.33;8.35;;;3.00;99.90;;;;;;5062807;28;20038;-68
2021/12/04 08:52:39;;;;;;;15.05;7.70;;;3.00;99.90;;;;;;5077966;28;20074;-68
2021/12/04 08:55:06;;;;;;;13.80;7.40;;;3.00;99.90;;;;;;5066141;28;20375;-68
2021/12/04 08:57:32;;;;;;;18.63;8.07;;;3.00;99.90;;;;;;5073243;28;20018;-68
2021/12/04 08:59:58;;;;;;;13.00;7.03;;;3.10;99.90;;;;;;5076288;28;20029;-68
2021/12/04 09:02:24;;;;;;;12.55;7.15;;;3.00;99.90;;;;;;5076300;28;20026;-68
2021/12/04 09:04:49;;;;;;;15.98;7.47;;;3.10;99.90;;;;;;5076121;28;20041;-68
2021/12/04 09:07:18;;;;;;;13.30;7.00;;;3.10;99.90;;;;;;5075709;28;20028;-67
2021/12/04 09:09:46;;;;;;;12.40;7.00;;;3.10;99.90;;;;;;5075931;28;20505;-69
2021/12/04 09:12:13;;;;;;;12.73;7.25;;;3.20;99.90;;;;;;5071285;28;20105;-68
2021/12/04 09:14:42;;;;;;;12.82;6.90;;;3.20;99.90;;;;;;5053244;28;20034;-68
2021/12/04 09:17:10;;;;;;;14.02;6.57;;;3.20;99.90;;;;;;5075433;28;20034;-67
2021/12/04 09:19:36;;;;;;;15.25;7.00;;;3.30;99.90;;;;;;5075781;28;20033;-67
2021/12/04 09:22:04;;;;;;;12.27;6.93;;;3.20;99.90;;;;;;5076319;28;20022;-68
2021/12/04 09:24:42;;;;;;;14.98;6.60;;;3.30;99.90;;;;;;5008473;28;20028;-68
2021/12/04 10:02:05;;;;;;;10.80;5.57;;;4.00;99.90;;;;;;5011325;28;20026;-69
2021/12/04 10:21:41;;;;;;;8.98;5.07;;;4.30;99.90;;;;;;5011357;28;20044;-68
2021/12/04 10:32:27;;;;;;;7.65;4.45;;;4.50;99.90;;;;;;5016545;28;20492;-69
2021/12/04 10:34:59;;;;;;;7.35;4.22;;;4.60;99.90;;;;;;5074419;28;20026;-68
2021/12/04 10:37:27;;;;;;;7.15;4.95;;;4.60;99.90;;;;;;5075129;28;20036;-70
2021/12/04 10:39:55;;;;;;;7.18;4.60;;;4.70;99.90;;;;;;5076944;28;20029;-69
2021/12/04 10:42:29;;;;;;;7.22;4.72;;;4.70;99.90;;;;;;5090463;27;20087;-68
2021/12/04 10:44:56;;;;;;;7.50;4.57;;;4.80;99.90;;;;;;5071417;28;20026;-67
2021/12/04 10:47:27;;;;;;;7.13;4.95;;;4.80;99.90;;;;;;5077427;28;20091;-68
2021/12/04 10:55:16;;;;;;;;;;;4.90;99.90;;;;;;5035296;28;20056;-67
2021/12/04 11:03:05;;;;;;;9.95;5.78;;;5.00;99.90;;;;;;5013837;28;20030;-67
2021/12/04 11:18:38;;;;;;;8.57;6.03;;;5.10;99.90;;;;;;5016253;28;20029;-68
2021/12/04 11:19:56;;;;;;;8.05;5.00;;;5.30;99.90;;;;;;5008170;28;20674;-68
2021/12/04 11:41:17;;;;;;;4.65;3.50;;;5.70;99.90;;;;;;5010300;28;20128;-68
2021/12/04 11:44:29;;;;;;;5.43;3.55;;;5.70;99.90;;;;;;5084901;28;20061;-67
2021/12/04 11:46:42;;;;;;;4.20;2.85;;;5.70;99.90;;;;;;5019324;28;20053;-68
2021/12/04 11:49:09;;;;;;;4.93;3.17;;;5.70;99.90;;;;;;5075563;28;20022;-67
2021/12/04 11:51:43;;;;;;;4.85;3.70;;;5.80;99.90;;;;;;5077516;28;20033;-67
2021/12/04 11:54:11;;;;;;;2.70;2.50;;;5.80;99.90;;;;;;5071736;28;20064;-67
2021/12/04 11:56:37;;;;;;;3.60;2.88;;;5.80;99.90;;;;;;5067928;28;20096;-68
2021/12/04 11:59:03;;;;;;;4.25;2.80;;;5.90;99.90;;;;;;5069788;28;20121;-68
2021/12/04 12:01:38;;;;;;;2.90;2.47;;;6.00;99.90;;;;;;5091446;28;20109;-68
2021/12/04 12:04:11;;;;;;;3.42;2.58;;;6.00;99.90;;;;;;5078412;28;20030;-71
2021/12/04 12:06:40;;;;;;;3.08;2.45;;;6.00;99.90;;;;;;5075380;28;20034;-68
2021/12/04 12:09:15;;;;;;;4.30;2.55;;;6.00;99.90;;;;;;5074090;28;20496;-69
2021/12/04 12:11:53;;;;;;;5.22;2.40;;;6.00;99.90;;;;;;5084701;28;20036;-71
2021/12/04 12:14:37;;;;;;;3.13;2.40;;;6.10;99.90;;;;;;5057589;28;20041;-69
2021/12/04 12:17:03;;;;;;;2.78;2.50;;;6.10;99.90;;;;;;5076459;28;20030;-68
2021/12/04 12:19:37;;;;;;;4.40;3.00;;;6.10;99.90;;;;;;5076591;28;20026;-69
2021/12/04 12:36:14;;;;;;;4.18;2.92;;;6.20;99.90;;;;;;5009738;28;20034;-71
2021/12/04 12:38:48;;;;;;;2.88;2.58;;;6.20;99.90;;;;;;5071767;28;20473;-68
2021/12/04 12:41:22;;;;;;;2.75;2.45;;;6.20;99.90;;;;;;5076934;28;20154;-69
2021/12/04 12:43:57;;;;;;;2.45;2.15;;;6.20;99.90;;;;;;5076971;28;20025;-69
2021/12/04 12:46:44;;;;;;;2.30;2.05;;;6.20;99.90;;;;;;5076877;28;20026;-69
2021/12/04 12:49:40;;;;;;;5.25;3.55;;;6.30;99.90;;;;;;5076047;28;20083;-70
2021/12/04 12:52:27;;;;;;;2.85;2.30;;;6.30;99.90;;;;;;5057325;28;20057;-69
2021/12/04 12:55:10;;;;;;;2.47;2.00;;;6.30;99.90;;;;;;5076560;28;20134;-70
2021/12/04 12:57:37;;;;;;;;;;;6.30;99.90;;;;;;5073206;28;20429;-71
2021/12/04 13:14:30;;;;;;;4.90;3.85;;;6.40;99.90;;;;;;5009500;28;20045;-68
2021/12/04 13:16:59;;;;;;;5.65;3.13;;;6.50;99.90;;;;;;5076024;28;20033;-69
2021/12/04 13:19:26;;;;;;;4.05;2.95;;;6.50;99.90;;;;;;5076400;28;20037;-69
2021/12/04 13:21:56;;;;;;;3.92;3.15;;;6.50;99.90;;;;;;5076334;28;20022;-69
2021/12/04 13:24:29;;;;;;;6.55;3.80;;;6.50;99.90;;;;;;5075924;28;20420;-73
2021/12/04 13:26:57;;;;;;;4.28;3.58;;;6.50;99.90;;;;;;5076896;28;20472;-68
2021/12/04 13:29:25;;;;;;;4.70;3.72;;;6.50;99.90;;;;;;5079926;28;20032;-71
2021/12/04 13:31:56;;;;;;;14.18;8.85;;;6.50;99.90;;;;;;5080409;28;20033;-68
2021/12/04 13:34:26;;;;;;;5.05;4.00;;;6.60;99.90;;;;;;5080314;28;20078;-69
2021/12/04 13:36:53;;;;;;;5.57;4.05;;;6.60;99.90;;;;;;5080161;28;20496;-69
2021/12/04 13:39:19;;;;;;;8.35;4.20;;;6.60;99.90;;;;;;5079646;28;20033;-70
2021/12/04 13:41:46;;;;;;;7.80;3.90;;;6.60;99.90;;;;;;5080141;28;20033;-69
2021/12/04 13:44:15;;;;;;;5.97;4.07;;;6.70;99.90;;;;;;5080019;28;20049;-69
2021/12/04 13:46:46;;;;;;;6.47;4.35;;;6.70;99.90;;;;;;5080090;28;20116;-69
2021/12/04 13:49:14;;;;;;;7.97;4.50;;;6.70;99.90;;;;;;5078962;28;20026;-69
2021/12/04 13:51:40;;;;;;;6.15;3.90;;;6.70;99.90;;;;;;5079936;28;20034;-69
2021/12/04 13:54:08;;;;;;;8.13;5.30;;;6.70;99.90;;;;;;5079958;28;20025;-69
2021/12/04 13:56:34;;;;;;;7.03;4.30;;;6.80;99.90;;;;;;5079589;28;20072;-69
2021/12/04 13:59:03;;;;;;;6.38;4.03;;;6.80;99.90;;;;;;5078953;28;20166;-69
2021/12/04 14:01:36;;;;;;;8.82;4.15;;;6.80;99.90;;;;;;5079792;28;20046;-70
2021/12/04 14:04:03;;;;;;;;;;;6.80;99.90;;;;;;5080089;28;20109;-69
2021/12/04 14:06:29;;;;;;;5.88;4.00;;;6.80;99.90;;;;;;5079660;28;19931;-69
2021/12/04 14:09:06;;;;;;;7.68;4.20;;;6.80;99.90;;;;;;5078920;28;20025;-69
2021/12/04 14:11:39;;;;;;;7.13;4.45;;;6.90;99.90;;;;;;5079828;28;20030;-69
2021/12/04 14:14:19;;;;;;;10.05;5.95;;;6.90;99.90;;;;;;5079501;28;20026;-70
2021/12/04 14:16:50;;;;;;;9.90;5.78;;;7.00;99.90;;;;;;5079325;28;20034;-69
2021/12/04 14:19:23;;;;;;;11.82;6.82;;;7.00;99.90;;;;;;5078924;28;20394;-71
2021/12/04 14:22:13;;;;;;;9.75;6.00;;;7.00;99.90;;;;;;5079501;28;20481;-71
2021/12/04 14:25:01;;;;;;;5.32;3.97;;;7.00;99.90;;;;;;5078388;28;20550;-71
2021/12/04 14:27:37;;;;;;;7.85;4.57;;;7.10;99.90;;;;;;5079074;28;20117;-71
2021/12/04 14:30:16;;;;;;;13.63;7.35;;;7.10;99.90;;;;;;5079040;28;20424;-71
2021/12/04 14:32:46;;;;;;;12.00;6.15;;;7.10;99.90;;;;;;5079403;28;20405;-71
2021/12/04 14:35:15;;;;;;;10.45;4.97;;;7.20;99.90;;;;;;5079136;28;20116;-71
2021/12/04 14:37:53;;;;;;;10.50;6.32;;;7.20;99.90;;;;;;5078001;28;20026;-71
2021/12/04 14:40:23;;;;;;;9.82;6.15;;;7.20;99.90;;;;;;5078990;28;20022;-71
2021/12/04 14:42:54;;;;;;;9.82;5.32;;;7.20;99.90;;;;;;5078793;28;20393;-70
2021/12/04 14:45:22;;;;;;;8.55;5.35;;;7.20;99.90;;;;;;5041955;28;20420;-69
2021/12/04 14:47:57;;;;;;;7.03;4.95;;;7.20;99.90;;;;;;5078265;28;20079;-70
2021/12/04 14:50:24;;;;;;;7.13;4.25;;;7.30;99.90;;;;;;5078617;28;20113;-72
2021/12/04 14:52:56;;;;;;;5.82;4.13;;;7.30;99.90;;;;;;5078534;28;20033;-72
2021/12/04 14:55:34;;;;;;;8.27;5.18;;;7.30;99.90;;;;;;5078412;28;20022;-72
2021/12/04 14:58:04;;;;;;;6.00;3.63;;;7.40;99.90;;;;;;5074503;28;20034;-72
2021/12/04 15:00:35;;;;;;;5.35;3.58;;;7.40;99.90;;;;;;5069907;28;20018;-74
2021/12/04 15:03:10;;;;;;;3.45;2.80;;;7.40;99.90;;;;;;5078447;28;20166;-72
2021/12/04 15:05:57;;;;;;;4.35;2.85;;;7.50;99.90;;;;;;5077813;28;20057;-72
2021/12/04 15:08:27;;;;;;;4.80;3.38;;;7.60;99.90;;;;;;5077220;28;20030;-71
2021/12/04 15:10:58;;;;;;;3.65;2.85;;;7.60;99.90;;;;;;5078434;28;20033;-72
2021/12/04 15:13:29;;;;;;;3.25;2.40;;;7.70;99.90;;;;;;5078089;28;20125;-72
2021/12/04 15:16:00;;;;;;;3.25;2.72;;;7.70;99.90;;;;;;5077846;28;20037;-73
2021/12/04 15:18:35;;;;;;;4.82;2.72;;;7.70;99.90;;;;;;5077213;28;20029;-72
2021/12/04 15:21:17;;;;;;;4.57;2.95;;;7.80;99.90;;;;;;5077537;28;20026;-73
2021/12/04 15:23:45;;;;;;;4.25;2.55;;;7.80;99.90;;;;;;5077593;28;20034;-72
2021/12/04 15:26:18;;;;;;;3.10;2.42;;;7.80;99.90;;;;;;5077802;28;20146;-73
2021/12/04 15:28:51;;;;;;;2.55;1.98;;;7.80;99.90;;;;;;5076752;28;20026;-72
2021/12/04 15:31:24;;;;;;;5.43;2.20;;;7.80;99.90;;;;;;5077060;28;20103;-73
2021/12/04 15:33:54;;;;;;;6.60;2.60;;;7.90;99.90;;;;;;5077713;28;20026;-72
2021/12/04 15:36:24;;;;;;;4.82;2.30;;;7.90;99.90;;;;;;5077453;28;20022;-73
2021/12/04 15:38:53;;;;;;;1.52;1.42;;;7.90;99.90;;;;;;5076763;28;20018;-74
2021/12/04 15:52:48;;;;;;;2.00;1.70;;;7.90;99.90;;;;;;5003461;28;20055;-72
2021/12/04 15:55:15;;;;;;;2.42;2.22;;;7.90;99.90;;;;;;5004863;28;20512;-73
2021/12/04 15:57:56;;;;;;;4.93;3.67;;;7.90;99.90;;;;;;5074098;28;20124;-73
2021/12/04 16:00:25;;;;;;;3.03;2.50;;;7.90;99.90;;;;;;5076631;28;20079;-73
2021/12/04 16:02:55;;;;;;;3.95;3.40;;;7.90;99.90;;;;;;5069226;28;20033;-73
2021/12/04 16:05:25;;;;;;;2.85;2.65;;;7.90;99.90;;;;;;5058035;28;20038;-74
2021/12/04 16:08:12;;;;;;;6.47;5.43;;;7.90;99.90;;;;;;4987948;28;20026;-73
2021/12/04 16:10:40;;;;;;;3.92;3.53;;;7.90;99.90;;;;;;5057338;28;20026;-73
2021/12/04 16:13:08;;;;;;;7.03;5.15;;;7.90;99.90;;;;;;5056858;28;20022;-74
2021/12/04 16:15:35;;;;;;;6.65;5.60;;;7.90;99.90;;;;;;5061625;28;20030;-73
2021/12/04 16:18:02;;;;;;;8.23;6.88;;;7.90;99.90;;;;;;5076177;28;20030;-73
2021/12/04 16:20:30;;;;;;;6.53;4.97;;;7.90;99.90;;;;;;5076707;28;20030;-74
2021/12/04 16:23:01;;;;;;;5.30;4.55;;;7.90;99.90;;;;;;5046358;28;20102;-73
2021/12/04 16:25:36;;;;;;;6.28;4.68;;;7.90;99.90;;;;;;5071123;28;20026;-73
2021/12/04 16:33:39;;;;;;;4.85;3.60;;;8.00;99.90;;;;;;5009340;28;20018;-74
2021/12/04 16:36:09;;;;;;;3.90;2.80;;;8.00;99.90;;;;;;5076136;28;20041;-74
2021/12/04 16:38:36;;;;;;;4.97;3.70;;;8.00;99.90;;;;;;5076038;28;20029;-74
2021/12/04 16:41:07;;;;;;;7.15;4.80;;;8.00;99.90;;;;;;5075177;28;20482;-72
2021/12/04 16:43:35;;;;;;;6.78;4.50;;;8.00;99.90;;;;;;5075499;28;20022;-73
2021/12/04 16:46:13;;;;;;;6.43;4.85;;;8.00;99.90;;;;;;5072844;28;20639;-73